sensor_id;sensor_type;location;lat;lon;timestamp;P1;durP1;ratioP1;P2;durP2;ratioP2
52554;SDS011;38455;52.710;6.502;2023-02-28T00:00:49;9.48;;;3.75;;
52554;SDS011;38455;52.710;6.502;2023-02-28T00:03:15;8.10;;;2.85;;
52554;SDS011;38455;52.710;6.502;2023-02-28T00:05:40;6.00;;;2.65;;
52554;SDS011;38455;52.710;6.502;2023-02-28T00:08:06;5.35;;;2.55;;
52554;SDS011;38455;52.710;6.502;2023-02-28T00:10:33;5.45;;;2.60;;
52554;SDS011;38455;52.710;6.502;2023-02-28T00:13:00;8.75;;;3.05;;
52554;SDS011;38455;52.710;6.502;2023-02-28T00:15:27;7.65;;;3.13;;
52554;SDS011;38455;52.710;6.502;2023-02-28T00:17:53;7.85;;;3.75;;
52554;SDS011;38455;52.710;6.502;2023-02-28T00:20:19;7.60;;;3.00;;
52554;SDS011;38455;52.710;6.502;2023-02-28T00:22:45;8.18;;;3.03;;
52554;SDS011;38455;52.710;6.502;2023-02-28T00:25:14;5.82;;;3.15;;
52554;SDS011;38455;52.710;6.502;2023-02-28T00:27:41;11.13;;;4.80;;
52554;SDS011;38455;52.710;6.502;2023-02-28T00:30:09;6.43;;;3.30;;
52554;SDS011;38455;52.710;6.502;2023-02-28T00:32:37;7.95;;;3.80;;
52554;SDS011;38455;52.710;6.502;2023-02-28T00:35:03;9.65;;;3.33;;
52554;SDS011;38455;52.710;6.502;2023-02-28T00:37:29;7.63;;;3.15;;
52554;SDS011;38455;52.710;6.502;2023-02-28T00:39:55;8.57;;;2.95;;
52554;SDS011;38455;52.710;6.502;2023-02-28T00:42:21;9.05;;;3.40;;
52554;SDS011;38455;52.710;6.502;2023-02-28T00:44:47;5.47;;;3.20;;
52554;SDS011;38455;52.710;6.502;2023-02-28T00:47:13;12.75;;;3.85;;
52554;SDS011;38455;52.710;6.502;2023-02-28T00:49:39;7.30;;;3.17;;
52554;SDS011;38455;52.710;6.502;2023-02-28T00:52:04;7.38;;;3.78;;
52554;SDS011;38455;52.710;6.502;2023-02-28T00:54:30;8.50;;;3.50;;
52554;SDS011;38455;52.710;6.502;2023-02-28T00:56:56;7.70;;;3.38;;
52554;SDS011;38455;52.710;6.502;2023-02-28T00:59:21;7.15;;;3.25;;
52554;SDS011;38455;52.710;6.502;2023-02-28T01:01:47;10.10;;;4.38;;
52554;SDS011;38455;52.710;6.502;2023-02-28T01:04:13;9.23;;;3.38;;
52554;SDS011;38455;52.710;6.502;2023-02-28T01:06:39;7.00;;;3.65;;
52554;SDS011;38455;52.710;6.502;2023-02-28T01:09:06;10.60;;;4.05;;
52554;SDS011;38455;52.710;6.502;2023-02-28T01:11:32;8.45;;;3.72;;
52554;SDS011;38455;52.710;6.502;2023-02-28T01:13:58;12.40;;;3.70;;
52554;SDS011;38455;52.710;6.502;2023-02-28T01:16:24;11.10;;;3.58;;
52554;SDS011;38455;52.710;6.502;2023-02-28T01:18:50;9.75;;;3.50;;
52554;SDS011;38455;52.710;6.502;2023-02-28T01:21:17;8.95;;;3.63;;
52554;SDS011;38455;52.710;6.502;2023-02-28T01:23:45;6.63;;;3.42;;
52554;SDS011;38455;52.710;6.502;2023-02-28T01:26:18;11.40;;;3.63;;
52554;SDS011;38455;52.710;6.502;2023-02-28T01:28:46;10.70;;;4.47;;
52554;SDS011;38455;52.710;6.502;2023-02-28T01:31:11;6.30;;;3.50;;
52554;SDS011;38455;52.710;6.502;2023-02-28T01:33:38;10.13;;;4.68;;
52554;SDS011;38455;52.710;6.502;2023-02-28T01:36:05;8.70;;;4.50;;
52554;SDS011;38455;52.710;6.502;2023-02-28T01:38:36;15.05;;;3.90;;
52554;SDS011;38455;52.710;6.502;2023-02-28T01:41:01;12.07;;;4.20;;
52554;SDS011;38455;52.710;6.502;2023-02-28T01:43:31;10.77;;;4.00;;
52554;SDS011;38455;52.710;6.502;2023-02-28T01:46:17;8.85;;;3.90;;
52554;SDS011;38455;52.710;6.502;2023-02-28T01:49:03;9.90;;;3.92;;
52554;SDS011;38455;52.710;6.502;2023-02-28T01:51:37;8.60;;;4.00;;
52554;SDS011;38455;52.710;6.502;2023-02-28T01:54:16;11.27;;;3.95;;
52554;SDS011;38455;52.710;6.502;2023-02-28T01:56:49;11.10;;;4.93;;
52554;SDS011;38455;52.710;6.502;2023-02-28T01:59:31;11.20;;;4.82;;
52554;SDS011;38455;52.710;6.502;2023-02-28T02:02:01;9.35;;;4.05;;
52554;SDS011;38455;52.710;6.502;2023-02-28T02:04:30;10.50;;;4.22;;
52554;SDS011;38455;52.710;6.502;2023-02-28T02:07:02;12.52;;;4.82;;
52554;SDS011;38455;52.710;6.502;2023-02-28T02:09:29;7.93;;;4.13;;
52554;SDS011;38455;52.710;6.502;2023-02-28T02:11:54;11.38;;;4.07;;
52554;SDS011;38455;52.710;6.502;2023-02-28T02:17:19;9.95;;;4.90;;
52554;SDS011;38455;52.710;6.502;2023-02-28T02:25:45;10.32;;;4.32;;
52554;SDS011;38455;52.710;6.502;2023-02-28T02:28:35;10.48;;;5.47;;
52554;SDS011;38455;52.710;6.502;2023-02-28T02:39:48;14.70;;;7.75;;
52554;SDS011;38455;52.710;6.502;2023-02-28T02:42:27;13.35;;;7.90;;
52554;SDS011;38455;52.710;6.502;2023-02-28T02:45:03;15.43;;;8.07;;
52554;SDS011;38455;52.710;6.502;2023-02-28T02:47:34;14.38;;;8.02;;
52554;SDS011;38455;52.710;6.502;2023-02-28T02:50:03;18.13;;;8.88;;
52554;SDS011;38455;52.710;6.502;2023-02-28T02:52:34;14.75;;;7.90;;
52554;SDS011;38455;52.710;6.502;2023-02-28T02:55:06;13.80;;;8.27;;
52554;SDS011;38455;52.710;6.502;2023-02-28T02:57:38;14.52;;;8.45;;
52554;SDS011;38455;52.710;6.502;2023-02-28T03:00:10;16.55;;;8.32;;
52554;SDS011;38455;52.710;6.502;2023-02-28T03:02:37;16.65;;;8.35;;
52554;SDS011;38455;52.710;6.502;2023-02-28T03:05:05;16.70;;;8.48;;
52554;SDS011;38455;52.710;6.502;2023-02-28T03:07:46;13.68;;;7.82;;
52554;SDS011;38455;52.710;6.502;2023-02-28T03:18:39;20.42;;;9.88;;
52554;SDS011;38455;52.710;6.502;2023-02-28T03:26:50;18.65;;;9.90;;
52554;SDS011;38455;52.710;6.502;2023-02-28T03:32:06;15.57;;;8.88;;
52554;SDS011;38455;52.710;6.502;2023-02-28T03:34:43;22.73;;;10.25;;
52554;SDS011;38455;52.710;6.502;2023-02-28T03:37:32;22.20;;;11.38;;
52554;SDS011;38455;52.710;6.502;2023-02-28T03:40:11;21.08;;;11.20;;
52554;SDS011;38455;52.710;6.502;2023-02-28T03:42:39;18.33;;;9.85;;
52554;SDS011;38455;52.710;6.502;2023-02-28T03:45:10;21.95;;;9.88;;
52554;SDS011;38455;52.710;6.502;2023-02-28T03:47:56;21.70;;;10.45;;
52554;SDS011;38455;52.710;6.502;2023-02-28T03:50:49;19.65;;;10.68;;
52554;SDS011;38455;52.710;6.502;2023-02-28T03:55:50;18.30;;;10.55;;
52554;SDS011;38455;52.710;6.502;2023-02-28T03:58:26;24.05;;;11.48;;
52554;SDS011;38455;52.710;6.502;2023-02-28T04:01:07;16.40;;;8.90;;
52554;SDS011;38455;52.710;6.502;2023-02-28T04:03:37;18.63;;;9.68;;
52554;SDS011;38455;52.710;6.502;2023-02-28T04:06:04;14.13;;;8.18;;
52554;SDS011;38455;52.710;6.502;2023-02-28T04:08:32;15.48;;;9.13;;
52554;SDS011;38455;52.710;6.502;2023-02-28T04:11:06;14.55;;;7.95;;
52554;SDS011;38455;52.710;6.502;2023-02-28T04:13:39;15.95;;;8.77;;
52554;SDS011;38455;52.710;6.502;2023-02-28T04:16:08;19.52;;;9.20;;
52554;SDS011;38455;52.710;6.502;2023-02-28T04:18:38;19.45;;;9.70;;
52554;SDS011;38455;52.710;6.502;2023-02-28T04:21:04;20.17;;;10.10;;
52554;SDS011;38455;52.710;6.502;2023-02-28T04:23:30;19.98;;;10.55;;
52554;SDS011;38455;52.710;6.502;2023-02-28T04:25:56;24.35;;;10.93;;
52554;SDS011;38455;52.710;6.502;2023-02-28T04:28:22;24.10;;;11.48;;
52554;SDS011;38455;52.710;6.502;2023-02-28T04:30:53;21.80;;;11.27;;
52554;SDS011;38455;52.710;6.502;2023-02-28T04:33:24;27.20;;;10.95;;
52554;SDS011;38455;52.710;6.502;2023-02-28T04:36:03;20.13;;;10.77;;
52554;SDS011;38455;52.710;6.502;2023-02-28T04:38:33;20.90;;;12.40;;
52554;SDS011;38455;52.710;6.502;2023-02-28T04:41:01;21.90;;;11.18;;
52554;SDS011;38455;52.710;6.502;2023-02-28T04:43:27;27.85;;;13.40;;
52554;SDS011;38455;52.710;6.502;2023-02-28T04:45:54;20.83;;;11.45;;
52554;SDS011;38455;52.710;6.502;2023-02-28T04:48:24;25.90;;;12.13;;
52554;SDS011;38455;52.710;6.502;2023-02-28T04:50:52;20.20;;;10.75;;
52554;SDS011;38455;52.710;6.502;2023-02-28T04:53:18;19.15;;;10.90;;
52554;SDS011;38455;52.710;6.502;2023-02-28T04:55:44;22.48;;;10.63;;
52554;SDS011;38455;52.710;6.502;2023-02-28T04:58:10;19.58;;;10.25;;
52554;SDS011;38455;52.710;6.502;2023-02-28T05:00:38;18.33;;;9.98;;
52554;SDS011;38455;52.710;6.502;2023-02-28T05:03:03;16.88;;;10.73;;
52554;SDS011;38455;52.710;6.502;2023-02-28T05:05:29;16.83;;;10.07;;
52554;SDS011;38455;52.710;6.502;2023-02-28T05:07:55;20.95;;;10.15;;
52554;SDS011;38455;52.710;6.502;2023-02-28T05:10:24;19.77;;;11.25;;
52554;SDS011;38455;52.710;6.502;2023-02-28T05:12:49;27.23;;;13.05;;
52554;SDS011;38455;52.710;6.502;2023-02-28T05:15:17;22.25;;;11.00;;
52554;SDS011;38455;52.710;6.502;2023-02-28T05:17:43;20.42;;;10.45;;
52554;SDS011;38455;52.710;6.502;2023-02-28T05:20:09;18.35;;;10.02;;
52554;SDS011;38455;52.710;6.502;2023-02-28T05:22:42;23.75;;;10.43;;
52554;SDS011;38455;52.710;6.502;2023-02-28T05:25:10;23.55;;;10.95;;
52554;SDS011;38455;52.710;6.502;2023-02-28T05:27:38;22.38;;;11.02;;
52554;SDS011;38455;52.710;6.502;2023-02-28T05:30:05;18.60;;;10.07;;
52554;SDS011;38455;52.710;6.502;2023-02-28T05:32:31;15.70;;;9.90;;
52554;SDS011;38455;52.710;6.502;2023-02-28T05:34:57;20.92;;;10.25;;
52554;SDS011;38455;52.710;6.502;2023-02-28T05:37:22;18.80;;;9.85;;
52554;SDS011;38455;52.710;6.502;2023-02-28T05:39:48;18.52;;;8.70;;
52554;SDS011;38455;52.710;6.502;2023-02-28T05:42:14;16.65;;;9.57;;
52554;SDS011;38455;52.710;6.502;2023-02-28T05:44:39;15.38;;;9.13;;
52554;SDS011;38455;52.710;6.502;2023-02-28T05:47:05;16.13;;;9.25;;
52554;SDS011;38455;52.710;6.502;2023-02-28T05:49:31;14.43;;;8.52;;
52554;SDS011;38455;52.710;6.502;2023-02-28T05:51:56;19.20;;;9.05;;
52554;SDS011;38455;52.710;6.502;2023-02-28T05:54:22;16.17;;;9.15;;
52554;SDS011;38455;52.710;6.502;2023-02-28T05:56:47;19.85;;;8.95;;
52554;SDS011;38455;52.710;6.502;2023-02-28T05:59:13;15.45;;;9.55;;
52554;SDS011;38455;52.710;6.502;2023-02-28T06:01:40;19.75;;;10.35;;
52554;SDS011;38455;52.710;6.502;2023-02-28T06:04:10;13.48;;;8.48;;
52554;SDS011;38455;52.710;6.502;2023-02-28T06:06:36;22.42;;;9.23;;
52554;SDS011;38455;52.710;6.502;2023-02-28T06:09:03;12.18;;;7.25;;
52554;SDS011;38455;52.710;6.502;2023-02-28T06:11:30;18.58;;;8.05;;
52554;SDS011;38455;52.710;6.502;2023-02-28T06:13:56;12.30;;;7.68;;
52554;SDS011;38455;52.710;6.502;2023-02-28T06:16:24;14.48;;;8.07;;
52554;SDS011;38455;52.710;6.502;2023-02-28T06:18:50;13.18;;;7.97;;
52554;SDS011;38455;52.710;6.502;2023-02-28T06:21:17;11.93;;;7.13;;
52554;SDS011;38455;52.710;6.502;2023-02-28T06:23:43;16.90;;;9.18;;
52554;SDS011;38455;52.710;6.502;2023-02-28T06:26:09;17.90;;;8.55;;
52554;SDS011;38455;52.710;6.502;2023-02-28T06:28:35;13.20;;;8.18;;
52554;SDS011;38455;52.710;6.502;2023-02-28T06:31:08;13.23;;;7.90;;
52554;SDS011;38455;52.710;6.502;2023-02-28T06:33:35;18.42;;;8.48;;
52554;SDS011;38455;52.710;6.502;2023-02-28T06:36:02;23.58;;;9.30;;
52554;SDS011;38455;52.710;6.502;2023-02-28T06:38:29;17.48;;;8.30;;
52554;SDS011;38455;52.710;6.502;2023-02-28T06:40:56;19.70;;;8.13;;
52554;SDS011;38455;52.710;6.502;2023-02-28T06:43:23;14.48;;;8.13;;
52554;SDS011;38455;52.710;6.502;2023-02-28T06:45:49;15.32;;;9.02;;
52554;SDS011;38455;52.710;6.502;2023-02-28T06:48:19;16.27;;;8.65;;
52554;SDS011;38455;52.710;6.502;2023-02-28T06:50:44;17.35;;;9.40;;
52554;SDS011;38455;52.710;6.502;2023-02-28T06:53:10;19.75;;;8.98;;
52554;SDS011;38455;52.710;6.502;2023-02-28T06:55:37;12.75;;;8.50;;
52554;SDS011;38455;52.710;6.502;2023-02-28T06:58:03;15.57;;;9.65;;
52554;SDS011;38455;52.710;6.502;2023-02-28T07:00:39;14.15;;;9.00;;
52554;SDS011;38455;52.710;6.502;2023-02-28T07:03:09;15.52;;;8.73;;
52554;SDS011;38455;52.710;6.502;2023-02-28T07:05:38;20.83;;;10.63;;
52554;SDS011;38455;52.710;6.502;2023-02-28T07:08:05;17.05;;;9.27;;
52554;SDS011;38455;52.710;6.502;2023-02-28T07:10:31;19.17;;;10.48;;
52554;SDS011;38455;52.710;6.502;2023-02-28T07:12:58;19.38;;;10.20;;
52554;SDS011;38455;52.710;6.502;2023-02-28T07:15:25;22.27;;;10.27;;
52554;SDS011;38455;52.710;6.502;2023-02-28T07:17:50;16.58;;;9.30;;
52554;SDS011;38455;52.710;6.502;2023-02-28T07:20:16;19.80;;;10.85;;
52554;SDS011;38455;52.710;6.502;2023-02-28T07:22:42;18.45;;;10.93;;
52554;SDS011;38455;52.710;6.502;2023-02-28T07:25:08;17.85;;;10.35;;
52554;SDS011;38455;52.710;6.502;2023-02-28T07:27:34;20.35;;;11.07;;
52554;SDS011;38455;52.710;6.502;2023-02-28T07:30:00;19.27;;;10.30;;
52554;SDS011;38455;52.710;6.502;2023-02-28T07:32:27;23.17;;;12.05;;
52554;SDS011;38455;52.710;6.502;2023-02-28T07:34:53;23.70;;;11.10;;
52554;SDS011;38455;52.710;6.502;2023-02-28T07:37:19;23.02;;;11.63;;
52554;SDS011;38455;52.710;6.502;2023-02-28T07:39:45;15.85;;;10.13;;
52554;SDS011;38455;52.710;6.502;2023-02-28T07:42:11;25.67;;;10.68;;
52554;SDS011;38455;52.710;6.502;2023-02-28T07:44:38;17.52;;;10.00;;
52554;SDS011;38455;52.710;6.502;2023-02-28T07:47:08;19.85;;;10.45;;
52554;SDS011;38455;52.710;6.502;2023-02-28T07:49:38;20.88;;;11.40;;
52554;SDS011;38455;52.710;6.502;2023-02-28T07:52:05;21.90;;;11.85;;
52554;SDS011;38455;52.710;6.502;2023-02-28T07:54:31;15.73;;;9.63;;
52554;SDS011;38455;52.710;6.502;2023-02-28T07:56:58;13.98;;;9.23;;
52554;SDS011;38455;52.710;6.502;2023-02-28T07:59:23;15.60;;;8.35;;
52554;SDS011;38455;52.710;6.502;2023-02-28T08:01:49;15.68;;;9.38;;
52554;SDS011;38455;52.710;6.502;2023-02-28T08:04:18;15.80;;;8.52;;
52554;SDS011;38455;52.710;6.502;2023-02-28T08:06:44;14.88;;;8.23;;
52554;SDS011;38455;52.710;6.502;2023-02-28T08:09:11;12.95;;;7.38;;
52554;SDS011;38455;52.710;6.502;2023-02-28T08:11:36;13.82;;;7.95;;
52554;SDS011;38455;52.710;6.502;2023-02-28T08:14:02;16.15;;;8.68;;
52554;SDS011;38455;52.710;6.502;2023-02-28T08:16:28;12.68;;;8.60;;
52554;SDS011;38455;52.710;6.502;2023-02-28T08:18:53;9.70;;;6.63;;
52554;SDS011;38455;52.710;6.502;2023-02-28T08:21:19;12.52;;;7.50;;
52554;SDS011;38455;52.710;6.502;2023-02-28T08:23:49;11.52;;;7.22;;
52554;SDS011;38455;52.710;6.502;2023-02-28T08:26:19;10.52;;;6.32;;
52554;SDS011;38455;52.710;6.502;2023-02-28T08:28:45;9.85;;;4.93;;
52554;SDS011;38455;52.710;6.502;2023-02-28T08:31:12;9.60;;;5.45;;
52554;SDS011;38455;52.710;6.502;2023-02-28T08:33:39;9.40;;;4.78;;
52554;SDS011;38455;52.710;6.502;2023-02-28T08:36:06;10.68;;;4.40;;
52554;SDS011;38455;52.710;6.502;2023-02-28T08:38:33;7.90;;;4.50;;
52554;SDS011;38455;52.710;6.502;2023-02-28T08:41:01;5.95;;;4.43;;
52554;SDS011;38455;52.710;6.502;2023-02-28T08:43:28;5.93;;;4.15;;
52554;SDS011;38455;52.710;6.502;2023-02-28T08:45:55;8.80;;;4.93;;
52554;SDS011;38455;52.710;6.502;2023-02-28T08:48:22;7.43;;;4.80;;
52554;SDS011;38455;52.710;6.502;2023-02-28T08:50:55;6.22;;;4.13;;
52554;SDS011;38455;52.710;6.502;2023-02-28T08:53:26;5.50;;;3.80;;
52554;SDS011;38455;52.710;6.502;2023-02-28T08:56:03;6.13;;;4.05;;
52554;SDS011;38455;52.710;6.502;2023-02-28T08:58:32;6.50;;;4.50;;
52554;SDS011;38455;52.710;6.502;2023-02-28T09:00:58;6.22;;;3.90;;
52554;SDS011;38455;52.710;6.502;2023-02-28T09:03:24;5.93;;;3.35;;
52554;SDS011;38455;52.710;6.502;2023-02-28T09:05:56;5.35;;;3.65;;
52554;SDS011;38455;52.710;6.502;2023-02-28T09:08:23;5.30;;;2.63;;
52554;SDS011;38455;52.710;6.502;2023-02-28T09:10:50;6.20;;;3.03;;
52554;SDS011;38455;52.710;6.502;2023-02-28T09:13:17;9.18;;;2.63;;
52554;SDS011;38455;52.710;6.502;2023-02-28T09:15:43;5.50;;;2.55;;
52554;SDS011;38455;52.710;6.502;2023-02-28T09:18:09;4.25;;;2.60;;
52554;SDS011;38455;52.710;6.502;2023-02-28T09:20:39;5.43;;;3.08;;
52554;SDS011;38455;52.710;6.502;2023-02-28T09:23:05;7.00;;;3.28;;
52554;SDS011;38455;52.710;6.502;2023-02-28T09:25:32;5.32;;;2.70;;
52554;SDS011;38455;52.710;6.502;2023-02-28T09:27:57;8.02;;;3.33;;
52554;SDS011;38455;52.710;6.502;2023-02-28T09:30:23;6.90;;;2.60;;
52554;SDS011;38455;52.710;6.502;2023-02-28T09:32:49;3.97;;;2.20;;
52554;SDS011;38455;52.710;6.502;2023-02-28T09:35:23;4.03;;;2.17;;
52554;SDS011;38455;52.710;6.502;2023-02-28T09:37:51;5.10;;;2.03;;
52554;SDS011;38455;52.710;6.502;2023-02-28T09:40:17;3.83;;;1.40;;
52554;SDS011;38455;52.710;6.502;2023-02-28T09:42:49;4.22;;;2.15;;
52554;SDS011;38455;52.710;6.502;2023-02-28T09:45:26;4.53;;;1.80;;
52554;SDS011;38455;52.710;6.502;2023-02-28T09:48:11;2.25;;;1.42;;
52554;SDS011;38455;52.710;6.502;2023-02-28T09:50:55;3.47;;;1.85;;
52554;SDS011;38455;52.710;6.502;2023-02-28T09:53:27;3.17;;;1.88;;
52554;SDS011;38455;52.710;6.502;2023-02-28T09:56:09;4.47;;;1.60;;
52554;SDS011;38455;52.710;6.502;2023-02-28T09:58:47;3.67;;;1.58;;
52554;SDS011;38455;52.710;6.502;2023-02-28T10:06:49;4.03;;;1.90;;
52554;SDS011;38455;52.710;6.502;2023-02-28T10:11:48;5.10;;;2.20;;
52554;SDS011;38455;52.710;6.502;2023-02-28T10:14:21;5.88;;;2.00;;
52554;SDS011;38455;52.710;6.502;2023-02-28T10:17:08;2.58;;;1.52;;
52554;SDS011;38455;52.710;6.502;2023-02-28T10:22:25;3.83;;;2.03;;
52554;SDS011;38455;52.710;6.502;2023-02-28T10:24:52;4.07;;;2.13;;
52554;SDS011;38455;52.710;6.502;2023-02-28T10:27:25;2.45;;;1.70;;
52554;SDS011;38455;52.710;6.502;2023-02-28T10:29:57;4.63;;;2.10;;
52554;SDS011;38455;52.710;6.502;2023-02-28T10:32:32;3.30;;;1.95;;
52554;SDS011;38455;52.710;6.502;2023-02-28T10:35:03;5.40;;;2.38;;
52554;SDS011;38455;52.710;6.502;2023-02-28T10:37:38;2.50;;;1.80;;
52554;SDS011;38455;52.710;6.502;2023-02-28T10:40:05;2.05;;;1.60;;
52554;SDS011;38455;52.710;6.502;2023-02-28T10:45:31;3.10;;;1.60;;
52554;SDS011;38455;52.710;6.502;2023-02-28T10:50:51;3.65;;;2.35;;
52554;SDS011;38455;52.710;6.502;2023-02-28T11:00:55;4.82;;;1.50;;
52554;SDS011;38455;52.710;6.502;2023-02-28T11:03:32;2.40;;;1.48;;
52554;SDS011;38455;52.710;6.502;2023-02-28T11:06:04;1.67;;;0.95;;
52554;SDS011;38455;52.710;6.502;2023-02-28T11:08:33;1.40;;;0.85;;
52554;SDS011;38455;52.710;6.502;2023-02-28T11:11:00;2.63;;;1.25;;
52554;SDS011;38455;52.710;6.502;2023-02-28T11:13:32;2.30;;;1.20;;
52554;SDS011;38455;52.710;6.502;2023-02-28T11:16:02;1.63;;;1.00;;
52554;SDS011;38455;52.710;6.502;2023-02-28T11:18:41;1.63;;;1.00;;
52554;SDS011;38455;52.710;6.502;2023-02-28T11:21:29;2.20;;;1.13;;
52554;SDS011;38455;52.710;6.502;2023-02-28T11:24:02;2.45;;;1.40;;
52554;SDS011;38455;52.710;6.502;2023-02-28T11:26:38;3.08;;;1.00;;
52554;SDS011;38455;52.710;6.502;2023-02-28T11:29:39;1.45;;;0.90;;
52554;SDS011;38455;52.710;6.502;2023-02-28T11:32:19;1.55;;;1.00;;
52554;SDS011;38455;52.710;6.502;2023-02-28T11:34:59;2.30;;;1.48;;
52554;SDS011;38455;52.710;6.502;2023-02-28T11:37:28;2.00;;;1.10;;
52554;SDS011;38455;52.710;6.502;2023-02-28T11:39:55;3.28;;;1.23;;
52554;SDS011;38455;52.710;6.502;2023-02-28T11:42:31;11.00;;;1.40;;
52554;SDS011;38455;52.710;6.502;2023-02-28T11:58:41;2.45;;;1.23;;
52554;SDS011;38455;52.710;6.502;2023-02-28T12:01:24;2.85;;;1.30;;
52554;SDS011;38455;52.710;6.502;2023-02-28T12:06:25;2.72;;;1.35;;
52554;SDS011;38455;52.710;6.502;2023-02-28T12:17:38;1.55;;;0.98;;
52554;SDS011;38455;52.710;6.502;2023-02-28T12:23:38;2.50;;;1.25;;
52554;SDS011;38455;52.710;6.502;2023-02-28T12:26:21;3.95;;;1.45;;
52554;SDS011;38455;52.710;6.502;2023-02-28T12:32:25;2.70;;;1.20;;
52554;SDS011;38455;52.710;6.502;2023-02-28T12:34:51;2.45;;;1.13;;
52554;SDS011;38455;52.710;6.502;2023-02-28T12:37:41;3.22;;;1.17;;
52554;SDS011;38455;52.710;6.502;2023-02-28T12:40:21;3.67;;;1.25;;
52554;SDS011;38455;52.710;6.502;2023-02-28T12:42:49;3.50;;;1.42;;
52554;SDS011;38455;52.710;6.502;2023-02-28T12:45:31;3.28;;;1.23;;
52554;SDS011;38455;52.710;6.502;2023-02-28T12:48:10;3.80;;;1.50;;
52554;SDS011;38455;52.710;6.502;2023-02-28T12:50:40;1.50;;;1.10;;
52554;SDS011;38455;52.710;6.502;2023-02-28T12:58:50;3.20;;;1.35;;
52554;SDS011;38455;52.710;6.502;2023-02-28T13:04:14;5.10;;;1.50;;
52554;SDS011;38455;52.710;6.502;2023-02-28T13:09:37;2.17;;;1.25;;
52554;SDS011;38455;52.710;6.502;2023-02-28T13:12:14;3.35;;;1.55;;
52554;SDS011;38455;52.710;6.502;2023-02-28T13:14:41;4.57;;;1.45;;
52554;SDS011;38455;52.710;6.502;2023-02-28T13:19:40;4.32;;;1.65;;
52554;SDS011;38455;52.710;6.502;2023-02-28T13:24:54;3.67;;;2.28;;
52554;SDS011;38455;52.710;6.502;2023-02-28T13:29:57;2.55;;;1.20;;
52554;SDS011;38455;52.710;6.502;2023-02-28T13:47:39;3.63;;;1.77;;
52554;SDS011;38455;52.710;6.502;2023-02-28T13:58:53;4.65;;;1.65;;
52554;SDS011;38455;52.710;6.502;2023-02-28T14:06:55;3.25;;;1.88;;
52554;SDS011;38455;52.710;6.502;2023-02-28T14:15:02;2.42;;;1.88;;
52554;SDS011;38455;52.710;6.502;2023-02-28T14:17:30;5.53;;;1.98;;
52554;SDS011;38455;52.710;6.502;2023-02-28T14:19:57;2.40;;;1.80;;
52554;SDS011;38455;52.710;6.502;2023-02-28T14:27:43;6.35;;;2.10;;
52554;SDS011;38455;52.710;6.502;2023-02-28T14:30:43;4.80;;;1.70;;
52554;SDS011;38455;52.710;6.502;2023-02-28T14:33:42;4.35;;;1.75;;
52554;SDS011;38455;52.710;6.502;2023-02-28T14:38:47;4.78;;;2.25;;
52554;SDS011;38455;52.710;6.502;2023-02-28T14:41:38;3.35;;;2.30;;
52554;SDS011;38455;52.710;6.502;2023-02-28T14:46:47;5.82;;;2.70;;
52554;SDS011;38455;52.710;6.502;2023-02-28T14:52:02;9.75;;;2.15;;
52554;SDS011;38455;52.710;6.502;2023-02-28T14:54:46;6.25;;;2.25;;
52554;SDS011;38455;52.710;6.502;2023-02-28T15:00:16;4.57;;;2.15;;
52554;SDS011;38455;52.710;6.502;2023-02-28T15:02:48;6.85;;;2.42;;
52554;SDS011;38455;52.710;6.502;2023-02-28T15:07:46;3.60;;;2.28;;
52554;SDS011;38455;52.710;6.502;2023-02-28T15:12:55;4.05;;;2.28;;
52554;SDS011;38455;52.710;6.502;2023-02-28T15:20:49;4.65;;;1.92;;
52554;SDS011;38455;52.710;6.502;2023-02-28T15:23:16;3.92;;;2.63;;
52554;SDS011;38455;52.710;6.502;2023-02-28T15:25:43;6.07;;;2.53;;
52554;SDS011;38455;52.710;6.502;2023-02-28T15:28:11;5.30;;;1.90;;
52554;SDS011;38455;52.710;6.502;2023-02-28T15:30:53;4.75;;;2.30;;
52554;SDS011;38455;52.710;6.502;2023-02-28T15:33:25;3.38;;;1.85;;
52554;SDS011;38455;52.710;6.502;2023-02-28T15:36:09;3.20;;;2.00;;
52554;SDS011;38455;52.710;6.502;2023-02-28T15:38:39;3.15;;;2.05;;
52554;SDS011;38455;52.710;6.502;2023-02-28T15:41:20;6.10;;;2.08;;
52554;SDS011;38455;52.710;6.502;2023-02-28T15:47:03;2.75;;;1.75;;
52554;SDS011;38455;52.710;6.502;2023-02-28T15:49:37;3.38;;;1.98;;
52554;SDS011;38455;52.710;6.502;2023-02-28T15:52:12;3.80;;;2.05;;
52554;SDS011;38455;52.710;6.502;2023-02-28T15:54:44;3.30;;;1.90;;
52554;SDS011;38455;52.710;6.502;2023-02-28T15:57:13;5.63;;;2.47;;
52554;SDS011;38455;52.710;6.502;2023-02-28T15:59:48;4.32;;;2.17;;
52554;SDS011;38455;52.710;6.502;2023-02-28T16:02:22;4.28;;;2.40;;
52554;SDS011;38455;52.710;6.502;2023-02-28T16:07:43;5.95;;;2.75;;
52554;SDS011;38455;52.710;6.502;2023-02-28T16:10:10;3.90;;;2.10;;
52554;SDS011;38455;52.710;6.502;2023-02-28T16:12:39;5.95;;;2.40;;
52554;SDS011;38455;52.710;6.502;2023-02-28T16:15:17;4.82;;;2.28;;
52554;SDS011;38455;52.710;6.502;2023-02-28T16:17:45;4.60;;;2.10;;
52554;SDS011;38455;52.710;6.502;2023-02-28T16:20:12;2.88;;;2.17;;
52554;SDS011;38455;52.710;6.502;2023-02-28T16:22:41;4.13;;;2.05;;
52554;SDS011;38455;52.710;6.502;2023-02-28T16:25:08;5.43;;;2.15;;
52554;SDS011;38455;52.710;6.502;2023-02-28T16:27:37;3.45;;;2.05;;
52554;SDS011;38455;52.710;6.502;2023-02-28T16:30:04;4.15;;;2.22;;
52554;SDS011;38455;52.710;6.502;2023-02-28T16:32:35;5.45;;;3.03;;
52554;SDS011;38455;52.710;6.502;2023-02-28T16:35:02;3.28;;;2.25;;
52554;SDS011;38455;52.710;6.502;2023-02-28T16:37:28;7.22;;;3.00;;
52554;SDS011;38455;52.710;6.502;2023-02-28T16:39:54;3.85;;;2.40;;
52554;SDS011;38455;52.710;6.502;2023-02-28T16:42:23;5.18;;;2.88;;
52554;SDS011;38455;52.710;6.502;2023-02-28T16:44:51;4.03;;;2.78;;
52554;SDS011;38455;52.710;6.502;2023-02-28T16:47:18;3.38;;;2.33;;
52554;SDS011;38455;52.710;6.502;2023-02-28T16:49:44;3.97;;;2.55;;
52554;SDS011;38455;52.710;6.502;2023-02-28T16:52:10;4.63;;;2.85;;
52554;SDS011;38455;52.710;6.502;2023-02-28T16:54:37;5.97;;;3.00;;
52554;SDS011;38455;52.710;6.502;2023-02-28T16:57:04;4.95;;;2.58;;
52554;SDS011;38455;52.710;6.502;2023-02-28T16:59:31;3.30;;;2.13;;
52554;SDS011;38455;52.710;6.502;2023-02-28T17:01:58;6.72;;;2.22;;
52554;SDS011;38455;52.710;6.502;2023-02-28T17:04:27;3.08;;;1.90;;
52554;SDS011;38455;52.710;6.502;2023-02-28T17:06:53;4.43;;;2.45;;
52554;SDS011;38455;52.710;6.502;2023-02-28T17:09:20;4.85;;;2.13;;
52554;SDS011;38455;52.710;6.502;2023-02-28T17:11:47;4.45;;;2.10;;
52554;SDS011;38455;52.710;6.502;2023-02-28T17:14:13;4.35;;;2.67;;
52554;SDS011;38455;52.710;6.502;2023-02-28T17:16:40;7.10;;;2.78;;
52554;SDS011;38455;52.710;6.502;2023-02-28T17:19:11;5.00;;;2.55;;
52554;SDS011;38455;52.710;6.502;2023-02-28T17:21:39;4.88;;;2.60;;
52554;SDS011;38455;52.710;6.502;2023-02-28T17:24:07;4.30;;;2.90;;
52554;SDS011;38455;52.710;6.502;2023-02-28T17:26:33;8.23;;;2.80;;
52554;SDS011;38455;52.710;6.502;2023-02-28T17:28:59;4.38;;;2.25;;
52554;SDS011;38455;52.710;6.502;2023-02-28T17:31:25;4.07;;;2.50;;
52554;SDS011;38455;52.710;6.502;2023-02-28T17:33:52;4.80;;;3.28;;
52554;SDS011;38455;52.710;6.502;2023-02-28T17:36:28;4.53;;;3.22;;
52554;SDS011;38455;52.710;6.502;2023-02-28T17:38:54;4.85;;;2.70;;
52554;SDS011;38455;52.710;6.502;2023-02-28T17:41:23;5.95;;;3.00;;
52554;SDS011;38455;52.710;6.502;2023-02-28T17:43:51;6.22;;;2.97;;
52554;SDS011;38455;52.710;6.502;2023-02-28T17:46:21;4.68;;;2.97;;
52554;SDS011;38455;52.710;6.502;2023-02-28T17:48:49;4.93;;;2.88;;
52554;SDS011;38455;52.710;6.502;2023-02-28T17:51:17;7.10;;;3.25;;
52554;SDS011;38455;52.710;6.502;2023-02-28T17:53:44;5.60;;;3.10;;
52554;SDS011;38455;52.710;6.502;2023-02-28T17:56:17;4.30;;;3.03;;